Time;durP1;ratioP1;P1;durP2;ratioP2;P2;SDS_P1;SDS_P2;PMS_P1;PMS_P2;Temp;Humidity;BMP_temperature;BMP_pressure;BME280_temperature;BME280_humidity;BME280_pressure;Samples;Min_cycle;Max_cycle;Signal;HPM_P1;HPM_P2
2023/08/11 00:01:19;;;;;;;1.80;1.80;;;22.20;74.30;;;;;;5079958;27;43615;-72
2023/08/11 00:03:47;;;;;;;1.47;1.47;;;22.20;74.50;;;;;;5079423;28;43472;-73
2023/08/11 00:06:16;;;;;;;1.70;1.70;;;22.10;74.80;;;;;;5082423;28;44192;-72
2023/08/11 00:08:44;;;;;;;1.50;1.50;;;22.10;74.80;;;;;;5077993;27;43437;-72
2023/08/11 00:11:12;;;;;;;1.53;1.53;;;22.10;75.00;;;;;;5075227;28;43629;-72
2023/08/11 00:13:41;;;;;;;1.73;1.73;;;22.00;75.00;;;;;;5081930;27;44364;-72
2023/08/11 00:16:10;;;;;;;1.63;1.63;;;22.00;75.10;;;;;;5080972;28;43387;-72
2023/08/11 00:18:39;;;;;;;1.33;1.33;;;22.00;75.40;;;;;;5073931;28;43361;-73
2023/08/11 00:21:07;;;;;;;1.80;1.60;;;22.00;75.40;;;;;;5084173;28;44025;-72
2023/08/11 00:23:39;;;;;;;1.60;1.60;;;22.00;75.50;;;;;;5078568;28;43533;-73
2023/08/11 00:26:07;;;;;;;1.57;1.57;;;21.90;75.40;;;;;;5075986;28;43513;-70
2023/08/11 00:28:35;;;;;;;1.50;1.50;;;21.90;75.70;;;;;;5074568;28;43434;-70
2023/08/11 00:31:04;;;;;;;1.80;1.80;;;21.90;75.60;;;;;;5071701;28;43599;-70
2023/08/11 00:33:32;;;;;;;1.60;1.60;;;22.00;75.20;;;;;;5074302;28;44956;-70
2023/08/11 00:36:02;;;;;;;1.40;1.40;;;22.10;74.70;;;;;;5065545;28;43345;-70
2023/08/11 00:38:37;;;;;;;1.63;1.63;;;22.20;74.30;;;;;;5071671;28;43855;-70
2023/08/11 00:41:05;;;;;;;1.57;1.57;;;22.30;74.10;;;;;;5072352;28;46160;-71
2023/08/11 00:43:33;;;;;;;1.70;1.60;;;22.30;74.10;;;;;;5078384;28;43405;-71
2023/08/11 00:46:10;;;;;;;1.53;1.53;;;22.20;74.30;;;;;;5069154;28;43771;-71
2023/08/11 00:48:39;;;;;;;1.60;1.60;;;22.20;74.60;;;;;;5080011;28;43481;-69
2023/08/11 00:51:09;;;;;;;1.70;1.70;;;22.10;74.70;;;;;;5076144;28;43678;-69
2023/08/11 00:53:37;;;;;;;1.90;1.90;;;22.10;74.80;;;;;;5078597;28;43478;-69
2023/08/11 00:56:05;;;;;;;1.57;1.57;;;22.00;74.90;;;;;;5069905;28;43418;-70
2023/08/11 00:58:33;;;;;;;1.80;1.70;;;22.00;75.00;;;;;;5069492;28;43865;-70
2023/08/11 01:01:01;;;;;;;1.50;1.50;;;22.00;75.30;;;;;;5095520;27;46005;-74
2023/08/11 01:03:29;;;;;;;1.70;1.70;;;22.00;75.30;;;;;;5064957;28;44816;-71
2023/08/11 01:06:04;;;;;;;1.57;1.57;;;22.00;75.40;;;;;;5072582;28;43690;-73
2023/08/11 01:08:38;;;;;;;1.80;1.80;;;22.00;75.40;;;;;;5085379;28;43460;-73
2023/08/11 01:11:08;;;;;;;1.60;1.60;;;21.90;76.10;;;;;;5073688;28;43836;-73
2023/08/11 01:13:37;;;;;;;1.57;1.57;;;21.90;75.60;;;;;;5078400;27;43530;-72
2023/08/11 01:16:05;;;;;;;1.50;1.50;;;21.90;75.50;;;;;;5087420;27;43440;-72
2023/08/11 01:18:34;;;;;;;1.73;1.73;;;22.00;75.10;;;;;;5080287;28;43787;-72
2023/08/11 01:21:04;;;;;;;1.50;1.50;;;22.10;74.60;;;;;;5076444;28;46271;-73
2023/08/11 01:23:34;;;;;;;1.60;1.60;;;22.20;74.20;;;;;;5071572;27;44899;-72
2023/08/11 01:26:03;;;;;;;1.70;1.70;;;22.30;74.00;;;;;;5083999;28;43390;-72
2023/08/11 01:28:31;;;;;;;1.57;1.57;;;22.30;74.10;;;;;;5084277;28;43446;-72
2023/08/11 01:30:59;;;;;;;1.60;1.60;;;22.20;74.20;;;;;;5077653;27;45678;-72
2023/08/11 01:33:29;;;;;;;1.53;1.53;;;22.20;74.60;;;;;;5083632;28;43423;-73
2023/08/11 01:35:57;;;;;;;1.60;1.60;;;22.10;74.60;;;;;;5074783;28;44152;-73
2023/08/11 01:38:25;;;;;;;1.50;1.50;;;22.10;74.80;;;;;;5077518;27;43395;-72
2023/08/11 01:40:54;;;;;;;1.60;1.60;;;22.10;74.90;;;;;;5082082;28;45700;-73
2023/08/11 01:43:23;;;;;;;1.60;1.60;;;22.00;74.90;;;;;;5075237;28;43929;-72
2023/08/11 01:45:51;;;;;;;1.60;1.60;;;22.00;75.20;;;;;;5080625;28;43536;-73
2023/08/11 01:48:19;;;;;;;1.30;1.30;;;22.00;75.20;;;;;;5077673;28;43536;-73
2023/08/11 01:50:47;;;;;;;1.60;1.60;;;22.00;75.30;;;;;;5083930;28;45727;-73
2023/08/11 01:53:15;;;;;;;1.53;1.53;;;22.00;75.30;;;;;;5081596;28;44275;-72
2023/08/11 01:55:44;;;;;;;1.40;1.40;;;21.90;75.10;;;;;;5075843;28;43431;-72
2023/08/11 01:58:13;;;;;;;1.53;1.53;;;21.90;75.50;;;;;;5085976;28;43505;-72
2023/08/11 02:00:42;;;;;;;1.70;1.70;;;21.90;75.30;;;;;;5079210;28;46036;-72
2023/08/11 02:03:10;;;;;;;1.50;1.50;;;22.00;75.00;;;;;;5078571;28;43386;-72
2023/08/11 02:05:38;;;;;;;1.60;1.60;;;22.20;74.60;;;;;;5082900;28;43442;-70
2023/08/11 02:08:06;;;;;;;1.60;1.60;;;22.30;74.10;;;;;;5070737;28;43474;-70
2023/08/11 02:10:34;;;;;;;1.40;1.40;;;22.30;73.90;;;;;;5070050;28;45743;-70
2023/08/11 02:13:04;;;;;;;1.67;1.60;;;22.30;74.10;;;;;;5075186;27;43529;-70
2023/08/11 02:15:33;;;;;;;1.57;1.57;;;22.20;74.30;;;;;;5087001;27;43390;-72
2023/08/11 02:18:03;;;;;;;1.47;1.40;;;22.10;74.60;;;;;;5079684;28;43452;-73
2023/08/11 02:20:32;;;;;;;1.73;1.73;;;22.10;74.60;;;;;;5084642;28;43763;-72
2023/08/11 02:23:00;;;;;;;1.50;1.50;;;22.10;74.80;;;;;;5084771;28;43481;-71
2023/08/11 02:25:28;;;;;;;1.50;1.40;;;22.10;74.90;;;;;;5070525;28;43467;-71
2023/08/11 02:27:56;;;;;;;1.40;1.40;;;22.00;74.80;;;;;;5061836;28;43479;-71
2023/08/11 02:30:29;;;;;;;1.60;1.60;;;22.00;75.20;;;;;;5060084;28;43619;-71
2023/08/11 02:33:00;;;;;;;1.40;1.40;;;22.00;75.10;;;;;;5064784;28;43544;-71
2023/08/11 02:35:28;;;;;;;1.60;1.50;;;22.00;75.20;;;;;;5061565;27;43478;-71
2023/08/11 02:37:56;;;;;;;1.50;1.50;;;22.00;75.20;;;;;;5064535;28;43417;-70
2023/08/11 02:40:24;;;;;;;1.60;1.50;;;21.90;75.10;;;;;;5073987;28;46355;-70
2023/08/11 02:42:54;;;;;;;1.50;1.50;;;21.90;75.40;;;;;;5064244;28;43509;-71
2023/08/11 02:45:22;;;;;;;1.63;1.63;;;21.90;75.30;;;;;;5068066;28;43476;-70
2023/08/11 02:47:52;;;;;;;1.50;1.50;;;22.00;74.80;;;;;;5074874;28;43471;-70
2023/08/11 02:50:21;;;;;;;1.50;1.50;;;22.10;74.40;;;;;;5061310;28;43851;-71
2023/08/11 02:52:49;;;;;;;1.57;1.57;;;22.30;74.10;;;;;;5064485;28;43553;-71
2023/08/11 02:55:17;;;;;;;1.47;1.47;;;22.30;73.80;;;;;;5062246;28;43643;-71
2023/08/11 02:57:46;;;;;;;1.60;1.60;;;22.30;74.10;;;;;;5072963;28;44488;-71
2023/08/11 03:00:14;;;;;;;1.50;1.50;;;22.20;74.20;;;;;;5064595;28;43661;-70
2023/08/11 03:02:45;;;;;;;1.50;1.50;;;22.10;74.50;;;;;;5068875;28;44403;-70
2023/08/11 03:05:15;;;;;;;1.47;1.47;;;22.10;74.60;;;;;;5071325;28;43381;-71
2023/08/11 03:07:47;;;;;;;1.50;1.50;;;22.10;74.60;;;;;;5074517;27;43685;-70
2023/08/11 03:10:15;;;;;;;1.60;1.60;;;22.00;74.70;;;;;;5069527;28;45577;-70
2023/08/11 03:12:44;;;;;;;1.50;1.50;;;22.00;74.80;;;;;;5069407;28;43495;-70
2023/08/11 03:15:13;;;;;;;1.50;1.50;;;22.00;75.10;;;;;;5061150;28;43372;-71
2023/08/11 03:17:43;;;;;;;1.50;1.50;;;22.00;75.10;;;;;;5079137;28;43844;-72
2023/08/11 03:20:12;;;;;;;1.60;1.60;;;22.00;75.20;;;;;;5083351;28;45802;-73
2023/08/11 03:22:43;;;;;;;1.50;1.50;;;21.90;75.10;;;;;;5079711;28;44559;-73
2023/08/11 03:25:13;;;;;;;1.40;1.40;;;21.90;75.30;;;;;;5083291;28;43338;-72
2023/08/11 03:27:42;;;;;;;1.53;1.53;;;21.90;75.20;;;;;;5060738;28;43503;-75
2023/08/11 03:30:16;;;;;;;1.60;1.60;;;22.00;75.00;;;;;;5075122;28;44823;-75
2023/08/11 03:32:49;;;;;;;1.40;1.40;;;22.10;74.50;;;;;;5066384;28;43423;-75
2023/08/11 03:35:19;;;;;;;1.67;1.67;;;22.20;74.10;;;;;;5074169;28;43520;-75
2023/08/11 03:37:50;;;;;;;1.53;1.53;;;22.30;73.90;;;;;;5070158;28;43953;-75
2023/08/11 03:40:20;;;;;;;1.40;1.40;;;22.30;73.90;;;;;;5068224;28;45418;-75
2023/08/11 03:42:53;;;;;;;1.57;1.57;;;22.20;74.10;;;;;;5061016;28;43495;-75
2023/08/11 03:45:22;;;;;;;1.40;1.40;;;22.20;74.30;;;;;;5058318;28;43403;-75
2023/08/11 03:47:51;;;;;;;1.50;1.50;;;22.10;74.50;;;;;;5075579;27;43415;-75
2023/08/11 03:50:24;;;;;;;1.50;1.50;;;22.10;74.60;;;;;;5060922;28;44055;-74
2023/08/11 03:52:52;;;;;;;1.60;1.60;;;22.10;74.60;;;;;;5072731;28;43856;-74
2023/08/11 03:55:22;;;;;;;1.50;1.50;;;22.00;74.60;;;;;;5066167;28;43491;-74
2023/08/11 03:57:51;;;;;;;1.40;1.40;;;22.00;74.90;;;;;;5066137;28;44177;-74
2023/08/11 04:00:23;;;;;;;1.40;1.40;;;22.00;74.90;;;;;;5063959;28;46019;-74
2023/08/11 04:03:04;;;;;;;1.60;1.50;;;22.00;75.00;;;;;;5062886;28;43966;-74
2023/08/11 04:05:32;;;;;;;1.60;1.60;;;22.00;74.90;;;;;;5075141;28;43409;-74
2023/08/11 04:08:00;;;;;;;1.40;1.40;;;22.00;75.00;;;;;;5067251;28;43428;-75
2023/08/11 04:10:30;;;;;;;1.60;1.60;;;21.90;75.20;;;;;;5063267;27;44018;-75
2023/08/11 04:12:58;;;;;;;1.60;1.60;;;22.00;74.90;;;;;;5076063;27;44713;-75
2023/08/11 04:15:26;;;;;;;1.43;1.43;;;22.10;74.50;;;;;;5078229;28;43501;-74
2023/08/11 04:17:54;;;;;;;1.50;1.50;;;22.20;74.00;;;;;;5072784;27;43991;-75
2023/08/11 04:20:22;;;;;;;1.60;1.60;;;22.30;73.70;;;;;;5073315;28;43602;-74
2023/08/11 04:22:51;;;;;;;1.57;1.57;;;22.30;73.70;;;;;;5065892;28;44648;-74
2023/08/11 04:25:19;;;;;;;1.50;1.50;;;22.30;73.80;;;;;;5073288;27;43448;-70
2023/08/11 04:27:49;;;;;;;1.40;1.40;;;22.20;73.90;;;;;;5063098;28;44013;-74
2023/08/11 04:30:18;;;;;;;1.60;1.60;;;22.20;74.30;;;;;;5073780;28;45885;-74
2023/08/11 04:32:50;;;;;;;1.87;1.80;;;22.10;74.20;;;;;;5073545;28;44787;-74
2023/08/11 04:35:19;;;;;;;1.50;1.50;;;22.10;74.40;;;;;;5064699;28;43600;-74
2023/08/11 04:37:48;;;;;;;1.50;1.50;;;22.10;74.40;;;;;;5075814;28;43534;-70
2023/08/11 04:40:20;;;;;;;1.60;1.60;;;22.00;74.60;;;;;;5068066;27;45658;-70
2023/08/11 04:42:51;;;;;;;1.60;1.60;;;22.00;74.60;;;;;;5062720;28;43427;-70
2023/08/11 04:45:27;;;;;;;1.53;1.53;;;22.00;74.80;;;;;;5078890;28;43435;-69
2023/08/11 04:47:55;;;;;;;1.47;1.47;;;22.00;74.60;;;;;;5073692;28;43925;-69
2023/08/11 04:50:23;;;;;;;1.60;1.60;;;22.00;74.60;;;;;;5061109;28;44721;-70
2023/08/11 04:52:56;;;;;;;1.43;1.43;;;22.00;75.10;;;;;;5067005;28;43921;-69
2023/08/11 04:55:24;;;;;;;1.60;1.60;;;22.00;74.80;;;;;;5074152;28;43415;-70
2023/08/11 04:57:54;;;;;;;1.50;1.50;;;22.10;74.50;;;;;;5069103;28;43503;-69
2023/08/11 05:00:22;;;;;;;1.73;1.73;;;22.20;74.00;;;;;;5077295;27;45597;-70
2023/08/11 05:02:52;;;;;;;1.47;1.47;;;22.30;73.60;;;;;;5073778;28;43464;-70
2023/08/11 05:05:21;;;;;;;1.30;1.30;;;22.30;73.50;;;;;;5067927;28;43490;-70
2023/08/11 05:07:49;;;;;;;1.50;1.50;;;22.30;74.30;;;;;;5064594;27;43447;-70
2023/08/11 05:10:17;;;;;;;1.20;1.20;;;22.30;73.80;;;;;;5071864;28;43835;-70
2023/08/11 05:12:45;;;;;;;1.50;1.40;;;22.20;74.10;;;;;;5063366;28;43507;-70
2023/08/11 05:15:15;;;;;;;1.40;1.40;;;22.20;74.10;;;;;;5069963;28;43476;-71
2023/08/11 05:17:43;;;;;;;1.40;1.40;;;22.10;74.20;;;;;;5070992;28;43374;-70
2023/08/11 05:20:14;;;;;;;1.40;1.40;;;22.10;74.20;;;;;;5065055;28;43869;-70
2023/08/11 05:22:43;;;;;;;1.40;1.40;;;22.10;74.20;;;;;;5068787;28;43415;-70
2023/08/11 05:25:11;;;;;;;1.57;1.50;;;22.00;74.60;;;;;;5075403;28;43402;-69
2023/08/11 05:27:40;;;;;;;1.43;1.43;;;22.00;74.60;;;;;;5072471;28;43588;-69
2023/08/11 05:30:08;;;;;;;1.40;1.40;;;22.00;74.60;;;;;;5073987;27;43551;-69
2023/08/11 05:32:38;;;;;;;1.40;1.40;;;22.00;74.50;;;;;;5065178;27;43554;-70
2023/08/11 05:35:08;;;;;;;1.50;1.50;;;22.00;74.50;;;;;;5067523;28;43902;-69
2023/08/11 05:37:37;;;;;;;1.63;1.63;;;22.00;74.90;;;;;;5071109;28;43463;-69
2023/08/11 05:40:07;;;;;;;1.40;1.40;;;22.00;74.70;;;;;;5071160;27;44973;-70
2023/08/11 05:42:35;;;;;;;1.50;1.50;;;22.10;74.30;;;;;;5064124;28;43898;-69
2023/08/11 05:45:03;;;;;;;1.37;1.37;;;22.20;73.90;;;;;;5065462;28;43484;-69
2023/08/11 05:47:32;;;;;;;1.53;1.53;;;22.30;73.50;;;;;;5068452;28;44045;-71
2023/08/11 05:50:01;;;;;;;1.40;1.40;;;22.30;73.30;;;;;;5068371;28;44109;-70
2023/08/11 05:52:29;;;;;;;1.40;1.40;;;22.30;73.30;;;;;;5073396;28;43416;-70
2023/08/11 05:54:57;;;;;;;1.47;1.47;;;22.30;73.50;;;;;;5071333;28;43344;-70
2023/08/11 05:57:25;;;;;;;1.50;1.50;;;22.20;73.90;;;;;;5073023;27;43528;-71
2023/08/11 05:59:53;;;;;;;1.47;1.47;;;22.20;74.10;;;;;;5071861;28;44019;-70
2023/08/11 06:02:21;;;;;;;1.67;1.67;;;22.10;74.10;;;;;;5055388;28;43444;-70
2023/08/11 06:04:50;;;;;;;1.40;1.40;;;22.10;74.20;;;;;;5058668;28;43393;-70
2023/08/11 06:07:19;;;;;;;1.60;1.60;;;22.00;74.10;;;;;;5071018;27;43442;-70
2023/08/11 06:09:47;;;;;;;1.40;1.40;;;22.00;74.60;;;;;;5062956;28;43985;-70
2023/08/11 06:12:15;;;;;;;1.57;1.57;;;22.00;74.60;;;;;;5068038;28;43439;-70
2023/08/11 06:14:43;;;;;;;1.50;1.50;;;22.00;74.70;;;;;;5074739;28;43973;-69
2023/08/11 06:17:11;;;;;;;1.40;1.40;;;22.00;74.60;;;;;;5062915;28;43462;-71
2023/08/11 06:19:40;;;;;;;1.43;1.43;;;22.00;74.50;;;;;;5061604;28;43610;-70
2023/08/11 06:22:08;;;;;;;1.40;1.40;;;21.90;74.90;;;;;;5076555;27;44405;-70
2023/08/11 06:24:37;;;;;;;1.43;1.43;;;22.00;74.80;;;;;;5071832;28;43422;-72
2023/08/11 06:27:06;;;;;;;1.33;1.33;;;22.00;74.30;;;;;;5073140;28;43427;-69
2023/08/11 06:29:35;;;;;;;1.30;1.30;;;22.20;74.00;;;;;;5078978;27;43889;-70
2023/08/11 06:32:03;;;;;;;1.60;1.60;;;22.30;73.60;;;;;;5063319;28;44699;-70
2023/08/11 06:34:31;;;;;;;1.40;1.40;;;22.30;73.50;;;;;;5071105;28;43449;-71
2023/08/11 06:36:59;;;;;;;1.50;1.50;;;22.30;73.50;;;;;;5070222;28;43422;-71
2023/08/11 06:39:27;;;;;;;1.50;1.43;;;22.20;73.70;;;;;;5072894;28;43586;-71
2023/08/11 06:41:56;;;;;;;1.50;1.50;;;22.10;74.00;;;;;;5069623;28;43467;-71
2023/08/11 06:44:45;;;;;;;1.50;1.50;;;22.10;74.10;;;;;;5061132;28;43394;-70
2023/08/11 06:47:13;;;;;;;1.40;1.40;;;22.10;74.30;;;;;;5074142;28;43365;-71
2023/08/11 06:49:41;;;;;;;1.40;1.40;;;22.10;74.30;;;;;;5062090;28;43560;-70
2023/08/11 06:52:09;;;;;;;1.50;1.50;;;22.00;74.30;;;;;;5071382;28;43465;-71
2023/08/11 06:54:37;;;;;;;1.47;1.47;;;22.00;74.70;;;;;;5075387;28;43478;-70
2023/08/11 06:57:06;;;;;;;1.37;1.37;;;22.00;74.70;;;;;;5070447;28;43692;-70
2023/08/11 06:59:35;;;;;;;1.60;1.60;;;22.00;74.70;;;;;;5072570;28;44100;-71
2023/08/11 07:02:03;;;;;;;1.50;1.50;;;22.00;74.70;;;;;;5057238;28;43508;-71
2023/08/11 07:04:31;;;;;;;1.47;1.47;;;21.90;74.90;;;;;;5064834;28;43450;-71
2023/08/11 07:06:59;;;;;;;1.43;1.43;;;21.90;75.00;;;;;;5066782;28;44011;-70
2023/08/11 07:09:27;;;;;;;1.30;1.30;;;22.00;74.70;;;;;;5061239;28;44036;-70
2023/08/11 07:11:55;;;;;;;1.33;1.33;;;22.10;74.20;;;;;;5074761;28;43384;-70
2023/08/11 07:14:24;;;;;;;1.27;1.27;;;22.20;73.80;;;;;;5055346;28;43444;-70
2023/08/11 07:16:52;;;;;;;1.60;1.50;;;22.30;73.80;;;;;;5066061;28;43368;-70
2023/08/11 07:19:20;;;;;;;1.37;1.37;;;22.30;73.70;;;;;;5062027;28;43932;-70
2023/08/11 07:21:48;;;;;;;1.30;1.30;;;22.20;73.80;;;;;;5066416;27;43489;-70
2023/08/11 07:24:16;;;;;;;1.30;1.30;;;22.10;74.00;;;;;;5067179;28;43454;-70
2023/08/11 07:26:44;;;;;;;1.40;1.40;;;22.10;74.40;;;;;;5060932;28;43539;-70
2023/08/11 07:29:12;;;;;;;1.47;1.47;;;22.10;74.40;;;;;;5051397;28;45866;-70
2023/08/11 07:31:42;;;;;;;1.50;1.50;;;22.00;74.50;;;;;;5063955;28;43362;-69
2023/08/11 07:34:10;;;;;;;1.17;1.17;;;22.00;74.50;;;;;;5063642;28;43345;-70
2023/08/11 07:36:38;;;;;;;1.50;1.50;;;22.00;74.80;;;;;;5052736;28;43426;-71
2023/08/11 07:39:07;;;;;;;1.60;1.60;;;22.00;75.00;;;;;;5069417;28;45702;-71
2023/08/11 07:41:49;;;;;;;1.37;1.37;;;22.00;74.90;;;;;;5068412;27;43518;-69
2023/08/11 07:44:17;;;;;;;1.33;1.33;;;22.00;74.80;;;;;;5065102;28;43501;-70
2023/08/11 07:46:46;;;;;;;1.47;1.47;;;21.90;74.60;;;;;;5076115;28;43932;-70
2023/08/11 07:49:14;;;;;;;1.23;1.23;;;21.90;75.10;;;;;;5072768;28;46100;-70
2023/08/11 07:51:42;;;;;;;1.50;1.50;;;21.90;75.10;;;;;;5075564;28;44816;-71
2023/08/11 07:54:10;;;;;;;1.40;1.40;;;22.00;74.80;;;;;;5058686;28;43446;-70
2023/08/11 07:56:39;;;;;;;1.40;1.40;;;22.10;74.20;;;;;;5063956;28;43489;-70
2023/08/11 07:59:07;;;;;;;1.63;1.63;;;22.20;74.00;;;;;;5073291;28;43914;-69
2023/08/11 08:01:36;;;;;;;1.50;1.50;;;22.30;73.90;;;;;;5061218;28;43417;-70
2023/08/11 08:04:05;;;;;;;1.40;1.40;;;22.20;73.80;;;;;;5059429;28;43454;-70
2023/08/11 08:06:35;;;;;;;1.30;1.30;;;22.20;74.00;;;;;;5062295;28;43978;-72
2023/08/11 08:09:04;;;;;;;1.60;1.60;;;22.10;74.30;;;;;;5067703;28;43608;-70
2023/08/11 08:11:32;;;;;;;1.50;1.50;;;22.10;74.50;;;;;;5069110;28;44701;-70
2023/08/11 08:14:00;;;;;;;1.40;1.40;;;22.10;74.60;;;;;;5063854;28;43758;-70
2023/08/11 08:16:28;;;;;;;1.40;1.40;;;22.00;74.50;;;;;;5070538;28;43447;-70
2023/08/11 08:18:56;;;;;;;1.30;1.30;;;22.00;74.50;;;;;;5072977;28;43847;-69
2023/08/11 08:21:25;;;;;;;1.60;1.60;;;22.00;74.90;;;;;;5071835;28;43351;-70
2023/08/11 08:23:53;;;;;;;1.30;1.30;;;22.00;75.00;;;;;;5067422;27;43412;-72
2023/08/11 08:26:21;;;;;;;1.27;1.27;;;21.90;74.90;;;;;;5062677;28;43560;-70
2023/08/11 08:28:49;;;;;;;1.30;1.30;;;21.90;74.80;;;;;;5062582;28;43611;-70
2023/08/11 08:31:17;;;;;;;1.30;1.30;;;21.90;74.80;;;;;;5063518;28;44366;-69
2023/08/11 08:33:45;;;;;;;1.53;1.53;;;21.90;75.40;;;;;;5067131;28;43597;-69
2023/08/11 08:36:17;;;;;;;1.33;1.33;;;22.00;75.20;;;;;;5063945;28;43436;-69
2023/08/11 08:38:46;;;;;;;1.43;1.43;;;22.00;74.70;;;;;;5063954;28;46010;-71
2023/08/11 08:41:15;;;;;;;1.30;1.30;;;22.10;74.20;;;;;;5072282;28;44385;-71
2023/08/11 08:43:43;;;;;;;1.40;1.40;;;22.20;74.10;;;;;;5066240;28;43622;-71
2023/08/11 08:46:11;;;;;;;1.40;1.40;;;22.20;74.10;;;;;;5061109;28;44026;-70
2023/08/11 08:48:42;;;;;;;1.30;1.30;;;22.20;74.20;;;;;;5075305;28;46400;-70
2023/08/11 08:51:10;;;;;;;1.50;1.50;;;22.10;74.10;;;;;;5077095;28;44320;-70
2023/08/11 08:53:38;;;;;;;1.17;1.17;;;22.10;74.60;;;;;;5075824;28;43402;-70
2023/08/11 08:56:07;;;;;;;1.40;1.40;;;22.00;74.60;;;;;;5080807;27;44067;-70
2023/08/11 08:58:35;;;;;;;1.27;1.27;;;22.00;74.70;;;;;;5071840;27;43611;-71
2023/08/11 09:01:03;;;;;;;1.10;1.10;;;22.00;74.60;;;;;;5082050;28;43414;-70
2023/08/11 09:03:33;;;;;;;1.30;1.30;;;21.90;75.00;;;;;;5072393;27;43436;-70
2023/08/11 09:06:01;;;;;;;1.50;1.50;;;21.90;75.10;;;;;;5079747;28;43472;-70
2023/08/11 09:08:32;;;;;;;1.20;1.20;;;21.90;75.10;;;;;;5065083;27;43606;-70
2023/08/11 09:11:00;;;;;;;1.10;1.10;;;21.90;75.00;;;;;;5066828;28;43685;-70
2023/08/11 09:13:29;;;;;;;1.23;1.23;;;21.90;74.80;;;;;;5068717;28;43387;-69
2023/08/11 09:15:57;;;;;;;1.40;1.40;;;21.90;75.30;;;;;;5077211;28;44534;-70
2023/08/11 09:18:28;;;;;;;1.40;1.40;;;21.90;75.40;;;;;;5061100;28;45943;-70
2023/08/11 09:20:56;;;;;;;1.43;1.43;;;22.00;75.10;;;;;;5073653;28;43382;-71
2023/08/11 09:23:24;;;;;;;1.90;1.80;;;22.10;74.70;;;;;;5062588;28;43442;-71
2023/08/11 09:25:54;;;;;;;4.73;1.83;;;22.20;74.30;;;;;;5078214;28;43498;-71
2023/08/11 09:28:22;;;;;;;5.20;2.10;;;22.30;74.10;;;;;;5072850;28;46093;-69
2023/08/11 09:30:51;;;;;;;4.30;2.30;;;22.30;74.10;;;;;;5081854;27;43430;-69
2023/08/11 09:33:22;;;;;;;5.57;2.30;;;22.20;74.10;;;;;;5062334;28;43447;-70
2023/08/11 09:35:51;;;;;;;4.27;2.67;;;22.20;74.40;;;;;;5064872;28;43528;-70
2023/08/11 09:38:18;;;;;;;4.53;2.90;;;22.10;74.50;;;;;;5080184;27;45807;-70
2023/08/11 09:40:47;;;;;;;3.37;2.67;;;22.10;74.60;;;;;;5078183;27;43500;-71
2023/08/11 09:43:15;;;;;;;3.87;2.80;;;22.10;74.60;;;;;;5078426;28;43691;-70
2023/08/11 09:45:43;;;;;;;3.30;3.00;;;22.00;74.50;;;;;;5081841;27;43450;-70
2023/08/11 09:48:13;;;;;;;5.00;3.10;;;22.00;75.00;;;;;;5077077;27;43831;-70
2023/08/11 09:50:40;;;;;;;3.73;2.87;;;22.00;75.10;;;;;;5084065;28;44935;-70
2023/08/11 09:53:09;;;;;;;4.03;3.10;;;22.00;75.00;;;;;;5079714;28;43438;-70
2023/08/11 09:55:38;;;;;;;5.30;3.43;;;22.00;75.00;;;;;;5081799;27;44058;-71
2023/08/11 09:58:06;;;;;;;7.27;3.90;;;22.00;75.00;;;;;;5088316;28;43894;-70
2023/08/11 10:00:34;;;;;;;3.63;3.20;;;21.90;75.20;;;;;;5075703;28;44684;-70
2023/08/11 10:03:05;;;;;;;5.77;3.93;;;21.90;75.30;;;;;;5080277;27;43806;-70
2023/08/11 10:05:36;;;;;;;4.70;3.27;;;21.90;75.10;;;;;;5082502;27;43975;-69
2023/08/11 10:08:05;;;;;;;3.80;3.40;;;21.90;75.10;;;;;;5074656;28;43615;-71
2023/08/11 10:10:34;;;;;;;6.67;3.70;;;21.90;75.20;;;;;;5081686;27;44151;-70
2023/08/11 10:13:04;;;;;;;6.50;3.87;;;21.90;75.40;;;;;;5083423;27;44014;-70
2023/08/11 10:15:32;;;;;;;4.63;3.73;;;22.00;75.30;;;;;;5078603;28;43475;-74
2023/08/11 10:18:00;;;;;;;5.50;3.87;;;22.00;74.80;;;;;;5077763;28;46400;-74
2023/08/11 10:20:28;;;;;;;6.23;3.90;;;22.20;74.50;;;;;;5075734;28;44356;-74
2023/08/11 10:22:57;;;;;;;6.70;3.63;;;22.30;74.00;;;;;;5077646;27;43525;-74
2023/08/11 10:25:25;;;;;;;5.20;3.67;;;22.40;73.80;;;;;;5081135;28;43434;-70
2023/08/11 10:27:53;;;;;;;5.13;3.30;;;22.30;73.80;;;;;;5079255;28;43618;-70
2023/08/11 10:30:22;;;;;;;3.80;3.03;;;22.30;74.00;;;;;;5084377;27;43418;-70
2023/08/11 10:32:51;;;;;;;6.00;3.90;;;22.20;74.20;;;;;;5081201;27;43445;-69
2023/08/11 10:35:20;;;;;;;5.23;3.47;;;22.20;74.50;;;;;;5088609;27;43443;-69
2023/08/11 10:37:58;;;;;;;3.73;3.33;;;22.20;74.50;;;;;;5079788;27;43919;-69
2023/08/11 10:40:34;;;;;;;4.03;3.23;;;22.10;74.60;;;;;;5080435;28;43390;-70
2023/08/11 10:43:03;;;;;;;5.33;3.40;;;22.10;74.80;;;;;;5074574;28;43328;-69
2023/08/11 10:45:32;;;;;;;3.83;3.40;;;22.00;75.00;;;;;;5075470;28;44727;-69
2023/08/11 10:48:07;;;;;;;4.83;3.23;;;22.00;75.20;;;;;;5077369;28;43671;-69
2023/08/11 10:50:37;;;;;;;5.20;3.53;;;22.00;75.00;;;;;;5064559;28;43454;-69
2023/08/11 10:53:20;;;;;;;6.87;3.87;;;22.00;75.00;;;;;;5069395;28;43359;-69
2023/08/11 10:55:59;;;;;;;4.17;3.77;;;22.00;75.20;;;;;;5059307;28;43568;-69
2023/08/11 10:58:29;;;;;;;3.40;3.10;;;22.00;75.20;;;;;;5065262;28;43611;-70
2023/08/11 11:00:57;;;;;;;4.70;3.30;;;22.00;75.20;;;;;;5070072;28;43422;-69
2023/08/11 11:03:25;;;;;;;3.30;3.07;;;22.00;75.20;;;;;;5063043;27;43448;-70
2023/08/11 11:05:53;;;;;;;3.10;2.80;;;22.00;75.30;;;;;;5057562;28;43414;-70
2023/08/11 11:08:23;;;;;;;3.50;3.20;;;22.00;75.40;;;;;;5057631;28;43840;-70
2023/08/11 11:10:51;;;;;;;5.17;3.10;;;22.00;75.40;;;;;;5066137;28;43446;-70
2023/08/11 11:13:19;;;;;;;3.63;3.33;;;22.00;75.10;;;;;;5070820;28;43388;-70
2023/08/11 11:15:46;;;;;;;5.23;3.30;;;22.10;74.70;;;;;;5066608;28;43480;-70
2023/08/11 11:18:15;;;;;;;3.00;2.80;;;22.30;74.30;;;;;;5070078;28;43967;-71
2023/08/11 11:20:43;;;;;;;4.33;3.00;;;22.40;74.00;;;;;;5070180;27;44373;-70
2023/08/11 11:23:11;;;;;;;4.07;3.10;;;22.40;73.80;;;;;;5068021;28;43459;-70
2023/08/11 11:25:40;;;;;;;3.40;3.00;;;22.40;73.90;;;;;;5066680;28;43995;-72
2023/08/11 11:28:08;;;;;;;3.10;2.90;;;22.30;74.10;;;;;;5081409;28;45290;-72
2023/08/11 11:30:36;;;;;;;2.83;2.73;;;22.30;74.30;;;;;;5081364;28;43492;-73
2023/08/11 11:33:05;;;;;;;3.10;2.80;;;22.20;74.30;;;;;;5084979;28;43396;-73
2023/08/11 11:35:33;;;;;;;3.23;3.03;;;22.20;74.50;;;;;;5083482;28;43567;-73
2023/08/11 11:38:01;;;;;;;3.13;2.87;;;22.20;74.40;;;;;;5078297;28;45627;-73
2023/08/11 11:40:29;;;;;;;3.90;2.83;;;22.10;74.60;;;;;;5080123;28;43449;-73
2023/08/11 11:42:59;;;;;;;2.83;2.73;;;22.10;74.90;;;;;;5086069;28;43581;-73
2023/08/11 11:45:27;;;;;;;2.67;2.53;;;22.10;74.80;;;;;;5084289;28;43446;-73
2023/08/11 11:47:55;;;;;;;3.43;2.90;;;22.10;74.70;;;;;;5081267;28;43623;-73
2023/08/11 11:50:25;;;;;;;3.33;2.80;;;22.00;74.60;;;;;;5082814;28;43493;-73
2023/08/11 11:52:54;;;;;;;3.00;2.80;;;22.00;75.10;;;;;;5083961;28;43463;-73
2023/08/11 11:55:22;;;;;;;2.87;2.73;;;22.00;75.10;;;;;;5083447;28;43496;-73
2023/08/11 11:57:50;;;;;;;2.60;2.50;;;22.10;74.70;;;;;;5082658;28;43832;-73
2023/08/11 12:00:21;;;;;;;2.80;2.70;;;22.20;74.40;;;;;;5083248;28;44148;-73
2023/08/11 12:02:49;;;;;;;2.83;2.63;;;22.30;74.10;;;;;;5080800;28;43479;-72
2023/08/11 12:05:17;;;;;;;2.50;2.40;;;22.40;74.10;;;;;;5083067;28;44422;-72
2023/08/11 12:07:45;;;;;;;2.67;2.47;;;22.30;74.00;;;;;;5079742;28;45498;-72
2023/08/11 12:10:15;;;;;;;3.00;2.80;;;22.30;74.00;;;;;;5085455;28;44005;-73
2023/08/11 12:12:43;;;;;;;2.63;2.53;;;22.20;74.60;;;;;;5081412;28;43407;-72
2023/08/11 12:15:17;;;;;;;2.80;2.60;;;22.20;74.70;;;;;;5086596;28;43625;-73
2023/08/11 12:17:48;;;;;;;2.37;2.27;;;22.20;74.60;;;;;;5084305;28;43715;-72
2023/08/11 12:20:17;;;;;;;3.63;2.50;;;22.10;74.40;;;;;;5085722;28;43481;-72
2023/08/11 12:22:45;;;;;;;2.80;2.60;;;22.10;74.60;;;;;;5084390;28;44484;-72
2023/08/11 12:25:13;;;;;;;3.20;3.00;;;22.10;75.10;;;;;;5084390;27;43445;-72
2023/08/11 12:27:41;;;;;;;2.50;2.40;;;22.10;75.10;;;;;;5078352;28;43614;-72
2023/08/11 12:30:10;;;;;;;2.83;2.73;;;22.10;75.00;;;;;;5088354;27;43416;-73
2023/08/11 12:32:38;;;;;;;2.50;2.40;;;22.10;74.90;;;;;;5083485;28;43906;-73
2023/08/11 12:35:11;;;;;;;2.63;2.50;;;22.00;74.90;;;;;;5096708;27;43409;-73
2023/08/11 12:37:39;;;;;;;2.40;2.30;;;22.00;75.40;;;;;;5083937;28;43555;-70
2023/08/11 12:40:09;;;;;;;2.83;2.63;;;22.10;75.30;;;;;;5079369;28;43539;-70
2023/08/11 12:42:37;;;;;;;2.43;2.33;;;22.20;74.90;;;;;;5082709;28;43490;-70
2023/08/11 12:45:07;;;;;;;2.27;2.17;;;22.30;74.40;;;;;;5080078;28;43416;-70
2023/08/11 12:47:35;;;;;;;2.50;2.40;;;22.40;74.10;;;;;;5088985;28;43917;-74
2023/08/11 12:50:03;;;;;;;2.17;2.10;;;22.40;74.00;;;;;;5081881;27;44397;-74
2023/08/11 12:52:33;;;;;;;2.60;2.50;;;22.40;74.00;;;;;;5084706;28;43434;-74
2023/08/11 12:55:01;;;;;;;2.43;2.33;;;22.30;74.00;;;;;;5081863;28;43361;-75
2023/08/11 12:57:30;;;;;;;2.30;2.20;;;22.30;74.60;;;;;;5084065;27;44055;-73